CCR weather

Buchanan Field
Concord, California, United States

Public forecast

Using degrees Fahrenheit for public forecast. Weather courtesy of forecast.io.

Current aviation weather report (METAR) for Buchanan Field

Retrieved 2019/11/12 08:53 UTC (48 minutes ago):

KCCR 120853Z AUTO 00000KT 10SM CLR 12/06 A3005 RMK AO2 SLP163 T01220061 58001

Aviation forecast (TAF) for Buchanan Field

Forecast is more than 12 hours old.

Retrieved 2016/02/08 00:21 UTC (4 years ago):

TAF KCCR 082320Z 0900/0924 06006KT P6SM SKC FM090600 VRB03KT P6SM SKC FM091800 04009KT P6SM SKC